createdAt,value
2019-02-18T00:01:03.681Z,5.58
2019-02-18T00:03:31.092Z,5.34
2019-02-18T00:05:58.564Z,5.21
2019-02-18T00:08:25.931Z,5.07
2019-02-18T00:10:53.362Z,5.09
2019-02-18T00:13:20.731Z,5.16
2019-02-18T00:15:48.151Z,5.19
2019-02-18T00:18:15.564Z,5.03
2019-02-18T00:20:43.272Z,5.11
2019-02-18T00:23:10.687Z,5.15
2019-02-18T00:25:38.106Z,4.96
2019-02-18T00:28:05.486Z,5.07
2019-02-18T00:30:32.911Z,5.23
2019-02-18T00:33:00.312Z,5.49
2019-02-18T00:35:27.768Z,5.15
2019-02-18T00:38:03.396Z,5.05
2019-02-18T00:40:30.951Z,5.05
2019-02-18T00:42:58.423Z,4.94
2019-02-18T00:45:25.857Z,4.82
2019-02-18T00:47:53.247Z,4.71
2019-02-18T00:50:20.659Z,4.82
2019-02-18T00:52:48.168Z,4.71
2019-02-18T00:55:15.601Z,4.61
2019-02-18T00:57:43.026Z,4.41
2019-02-18T01:00:12.021Z,4.49
2019-02-18T01:02:39.386Z,4.41
2019-02-18T01:05:06.916Z,4.40
2019-02-18T01:07:35.253Z,4.35
2019-02-18T01:10:02.912Z,4.18
2019-02-18T01:12:30.332Z,3.99
2019-02-18T01:14:57.721Z,3.87
2019-02-18T01:17:25.141Z,3.72
2019-02-18T01:19:52.600Z,3.74
2019-02-18T01:22:20.099Z,3.75
2019-02-18T01:24:47.561Z,3.91
2019-02-18T01:27:15.289Z,3.88
2019-02-18T01:29:42.790Z,3.42
2019-02-18T01:32:10.246Z,3.39
2019-02-18T01:34:37.616Z,3.42
2019-02-18T01:37:05.042Z,3.47
2019-02-18T01:39:32.452Z,4.86
2019-02-18T01:41:59.922Z,6.53
2019-02-18T01:44:27.379Z,7.47
2019-02-18T01:46:54.861Z,7.91
2019-02-18T01:49:22.236Z,7.64
2019-02-18T01:51:49.705Z,5.54
2019-02-18T01:54:17.060Z,4.81
2019-02-18T01:56:44.526Z,4.63
2019-02-18T01:59:11.907Z,4.43
2019-02-18T02:01:39.362Z,4.16
2019-02-18T02:04:06.746Z,3.95
2019-02-18T02:06:34.175Z,3.83
2019-02-18T02:09:01.561Z,3.62
2019-02-18T02:11:28.989Z,3.36
2019-02-18T02:13:56.356Z,3.25
2019-02-18T02:16:23.812Z,3.33
2019-02-18T02:18:51.331Z,3.54
2019-02-18T02:21:18.923Z,3.63
2019-02-18T02:23:46.314Z,3.47
2019-02-18T02:26:13.746Z,3.26
2019-02-18T02:28:41.128Z,3.21
2019-02-18T02:31:08.586Z,3.07
2019-02-18T02:33:35.992Z,2.95
2019-02-18T02:36:03.461Z,2.86
2019-02-18T02:38:30.860Z,2.70
2019-02-18T02:40:58.206Z,2.68
2019-02-18T02:43:25.735Z,2.63
2019-02-18T02:45:53.122Z,2.61
2019-02-18T02:48:20.561Z,2.64
2019-02-18T02:50:47.972Z,2.38
2019-02-18T02:53:15.397Z,2.69
2019-02-18T02:55:42.892Z,2.76
2019-02-18T02:58:10.307Z,2.66
2019-02-18T03:00:37.703Z,2.59
2019-02-18T03:03:05.162Z,2.62
2019-02-18T03:05:32.568Z,2.52
2019-02-18T03:08:00.005Z,2.55
2019-02-18T03:10:27.846Z,2.81
2019-02-18T03:12:55.315Z,2.79
2019-02-18T03:15:22.686Z,2.78
2019-02-18T03:17:50.154Z,2.59
2019-02-18T03:20:17.576Z,2.33
2019-02-18T03:22:45.006Z,2.24
2019-02-18T03:25:20.001Z,2.14
2019-02-18T03:27:48.323Z,2.20
2019-02-18T03:30:51.926Z,2.15
2019-02-18T03:33:22.981Z,2.16
2019-02-18T03:35:50.582Z,2.10
2019-02-18T03:38:18.006Z,1.93
2019-02-18T03:40:45.461Z,1.80
2019-02-18T03:43:41.722Z,1.73
2019-02-18T03:46:20.126Z,1.93
2019-02-18T03:51:44.427Z,1.80
2019-02-18T03:54:18.045Z,1.79
2019-02-18T03:56:56.039Z,1.76
2019-02-18T03:59:29.835Z,1.71
2019-02-18T04:02:08.719Z,1.68
2019-02-18T04:04:46.005Z,1.69
2019-02-18T04:07:19.231Z,1.59
2019-02-18T04:09:52.629Z,1.45
2019-02-18T04:12:30.044Z,1.41
2019-02-18T04:15:03.901Z,1.55
2019-02-18T04:17:54.726Z,1.74
2019-02-18T04:20:32.905Z,1.60
2019-02-18T04:23:06.954Z,1.63
2019-02-18T04:25:46.795Z,1.73
2019-02-18T04:28:21.046Z,1.88
2019-02-18T04:30:59.415Z,1.90
2019-02-18T04:33:29.037Z,1.91
2019-02-18T04:36:06.612Z,1.95
2019-02-18T04:38:34.061Z,1.95
2019-02-18T04:41:01.449Z,1.99
2019-02-18T04:43:28.880Z,1.85
2019-02-18T04:45:56.251Z,1.75
2019-02-18T04:48:23.706Z,1.77
2019-02-18T04:50:51.060Z,2.04
2019-02-18T04:53:18.572Z,2.07
2019-02-18T04:55:45.960Z,2.06
2019-02-18T04:58:13.390Z,2.05
2019-02-18T05:00:40.797Z,1.99
2019-02-18T05:03:08.213Z,1.76
2019-02-18T05:05:35.591Z,1.59
2019-02-18T05:08:03.041Z,1.48
2019-02-18T05:10:30.402Z,1.39
2019-02-18T05:13:02.353Z,1.39
2019-02-18T05:15:29.836Z,1.38
2019-02-18T05:17:57.271Z,1.54
2019-02-18T05:20:24.750Z,1.69
2019-02-18T05:22:52.171Z,1.65
2019-02-18T05:25:19.597Z,1.77
2019-02-18T05:27:49.022Z,1.71
2019-02-18T05:30:16.386Z,1.59
2019-02-18T05:32:46.521Z,1.65
2019-02-18T05:35:13.946Z,1.66
2019-02-18T05:37:41.346Z,1.65
2019-02-18T05:40:08.745Z,1.71
2019-02-18T05:42:36.114Z,1.65
2019-02-18T05:45:03.930Z,1.63
2019-02-18T05:47:31.327Z,1.69
2019-02-18T05:49:58.761Z,1.75
2019-02-18T05:52:26.327Z,1.77
2019-02-18T05:54:53.808Z,1.90
2019-02-18T05:57:22.931Z,1.89
2019-02-18T05:59:50.516Z,1.60
2019-02-18T06:02:19.886Z,1.63
2019-02-18T06:04:47.307Z,1.72
2019-02-18T06:13:27.263Z,1.88
2019-02-18T06:16:17.056Z,2.05
2019-02-18T06:18:44.776Z,2.03
2019-02-18T06:21:16.095Z,1.86
2019-02-18T06:24:29.961Z,1.77
2019-02-18T06:27:09.036Z,1.77
2019-02-18T06:29:36.701Z,1.89
2019-02-18T06:32:07.421Z,1.66
2019-02-18T06:34:34.950Z,1.63
2019-02-18T06:37:02.427Z,1.44
2019-02-18T06:39:40.703Z,1.38
2019-02-18T06:42:02.385Z,1.68
2019-02-18T06:44:41.327Z,1.79
2019-02-18T06:47:43.046Z,1.90
2019-02-18T06:49:54.349Z,1.83
2019-02-18T06:52:21.716Z,1.91
2019-02-18T08:13:02.035Z,9.02
2019-02-18T08:47:00.325Z,7.12
2019-02-18T08:50:02.431Z,7.21
2019-02-18T08:53:59.808Z,7.14
2019-02-18T09:11:19.367Z,7.26
2019-02-18T09:14:53.376Z,6.95
2019-02-18T09:18:32.741Z,7.56
2019-02-18T09:21:23.607Z,7.69
2019-02-18T09:24:33.076Z,7.68
2019-02-18T09:34:07.832Z,7.83
2019-02-18T09:36:41.525Z,8.27
2019-02-18T09:45:00.663Z,8.62
2019-02-18T09:50:04.605Z,8.70
2019-02-18T09:52:56.705Z,8.54
2019-02-18T09:55:33.914Z,8.51
2019-02-18T09:58:06.635Z,8.40
2019-02-18T10:00:35.435Z,8.60
2019-02-18T10:03:03.679Z,8.77
2019-02-18T10:05:32.657Z,8.80
2019-02-18T10:08:03.761Z,8.76
2019-02-18T10:10:31.304Z,8.87
2019-02-18T10:22:03.591Z,9.25
2019-02-18T10:32:36.385Z,9.95
2019-02-18T10:36:01.499Z,10.18
2019-02-18T10:48:54.713Z,10.36
2019-02-18T10:52:18.875Z,10.63
2019-02-18T10:55:30.424Z,10.61
2019-02-18T10:58:12.886Z,10.72
2019-02-18T11:00:41.022Z,10.92
2019-02-18T11:03:21.393Z,10.99
2019-02-18T11:05:53.611Z,11.18
2019-02-18T11:15:31.176Z,11.55
2019-02-18T11:17:59.376Z,11.64
2019-02-18T11:21:36.256Z,11.65
2019-02-18T11:25:21.334Z,11.83
2019-02-18T11:27:49.896Z,12.04
2019-02-18T11:30:23.727Z,12.11
2019-02-18T11:33:14.834Z,12.12
2019-02-18T11:35:34.454Z,12.14
2019-02-18T11:38:42.594Z,12.21
2019-02-18T11:41:12.879Z,12.48
2019-02-18T11:43:40.916Z,12.98
2019-02-18T11:46:08.716Z,12.81
2019-02-18T11:48:39.134Z,12.79
2019-02-18T11:51:13.876Z,12.75
2019-02-18T11:53:41.596Z,12.99
2019-02-18T11:56:09.456Z,12.95
2019-02-18T11:59:06.995Z,12.98
2019-02-18T12:01:37.577Z,13.13
2019-02-18T12:04:05.615Z,13.04
2019-02-18T12:06:33.296Z,13.07
2019-02-18T12:09:00.956Z,13.08
2019-02-18T12:11:37.986Z,13.11
2019-02-18T12:14:10.814Z,13.30
2019-02-18T12:16:39.855Z,13.32
2019-02-18T12:19:07.532Z,13.38
2019-02-18T12:21:35.402Z,13.67
2019-02-18T12:24:05.655Z,13.62
2019-02-18T12:26:33.671Z,13.76
2019-02-18T12:29:01.344Z,13.91
2019-02-18T12:31:28.980Z,13.91
2019-02-18T12:33:56.634Z,14.16
2019-02-18T12:36:24.259Z,14.30
2019-02-18T12:38:51.854Z,14.36
2019-02-18T12:41:19.452Z,14.40
2019-02-18T12:43:47.074Z,14.44
2019-02-18T12:46:16.133Z,14.55
2019-02-18T12:48:43.854Z,14.59
2019-02-18T12:51:11.395Z,14.64
2019-02-18T12:53:39.014Z,14.72
2019-02-18T12:56:07.252Z,14.77
2019-02-18T12:58:35.116Z,14.96
2019-02-18T13:01:05.454Z,15.07
2019-02-18T13:03:33.013Z,15.71
2019-02-18T13:06:00.587Z,15.98
2019-02-18T13:08:28.457Z,16.13
2019-02-18T13:10:56.054Z,16.20
2019-02-18T13:13:26.573Z,16.18
2019-02-18T13:15:54.232Z,16.23
2019-02-18T13:18:22.009Z,16.15
2019-02-18T13:20:54.299Z,16.33
2019-02-18T13:23:22.114Z,16.34
2019-02-18T13:25:54.697Z,16.42
2019-02-18T13:28:22.533Z,16.42
2019-02-18T13:30:50.093Z,16.45
2019-02-18T13:33:17.794Z,16.39
2019-02-18T13:35:45.474Z,16.33
2019-02-18T13:38:23.974Z,16.42
2019-02-18T15:22:42.460Z,15.65
2019-02-18T15:33:17.860Z,15.61
2019-02-18T15:36:39.862Z,15.60
2019-02-18T15:39:07.436Z,15.42
2019-02-18T15:41:36.537Z,15.32
2019-02-18T15:44:06.063Z,15.37
2019-02-18T15:46:36.002Z,15.45
2019-02-18T15:49:04.960Z,15.40
2019-02-18T15:52:24.316Z,15.39
2019-02-18T15:54:57.173Z,15.33
2019-02-18T15:57:42.710Z,14.97
2019-02-18T16:00:14.025Z,14.57
2019-02-18T16:02:54.096Z,14.32
2019-02-18T16:05:25.401Z,14.18
2019-02-18T16:08:01.360Z,14.09
2019-02-18T16:11:00.668Z,13.92
2019-02-18T16:13:28.964Z,13.86
2019-02-18T16:27:38.653Z,13.35
2019-02-18T16:30:25.280Z,13.32
2019-02-18T18:05:01.221Z,11.35
2019-02-18T18:08:38.076Z,11.54
2019-02-18T18:11:53.341Z,11.65
2019-02-18T19:28:26.267Z,10.42
2019-02-18T20:25:15.272Z,10.41
2019-02-18T20:52:48.410Z,10.27
2019-02-18T20:55:16.885Z,10.26
2019-02-18T20:57:44.747Z,10.10
2019-02-18T21:00:16.020Z,10.26
2019-02-18T21:02:44.010Z,10.30
2019-02-18T21:05:12.211Z,10.26
2019-02-18T21:07:40.046Z,10.20
2019-02-18T21:10:09.261Z,10.21
2019-02-18T21:12:37.170Z,10.19
2019-02-18T21:15:06.435Z,10.18
2019-02-18T21:17:34.453Z,10.16
2019-02-18T21:20:02.534Z,10.01
2019-02-18T21:22:30.393Z,9.96
2019-02-18T21:24:58.336Z,9.82
2019-02-18T21:27:26.748Z,9.77
2019-02-18T21:32:42.150Z,9.65
2019-02-18T21:35:10.162Z,9.61
2019-02-18T21:37:37.846Z,9.52
2019-02-18T21:40:06.015Z,9.51
2019-02-18T21:42:33.605Z,9.45
2019-02-18T21:45:01.600Z,9.49
2019-02-18T21:47:29.081Z,9.49
2019-02-18T21:49:56.493Z,9.51
2019-02-18T21:52:24.139Z,9.52
2019-02-18T21:54:52.105Z,9.45
2019-02-18T21:57:19.605Z,9.46
2019-02-18T21:59:47.006Z,9.32
2019-02-18T22:02:14.796Z,9.34
2019-02-18T22:04:42.190Z,9.37
2019-02-18T22:07:09.745Z,9.36
2019-02-18T22:09:37.238Z,9.30
2019-02-18T22:12:04.715Z,9.27
2019-02-18T22:14:33.767Z,9.24
2019-02-18T22:17:01.507Z,9.24
2019-02-18T22:19:28.880Z,9.17
2019-02-18T22:21:56.396Z,9.15
2019-02-18T22:25:21.416Z,9.06
2019-02-18T22:27:48.996Z,9.03
2019-02-18T22:30:16.486Z,8.96
2019-02-18T22:32:44.047Z,8.97
2019-02-18T22:35:11.895Z,8.94
2019-02-18T22:37:39.330Z,8.94
2019-02-18T22:40:06.986Z,8.92
2019-02-18T22:42:34.718Z,8.93
2019-02-18T22:45:02.170Z,8.91
2019-02-18T22:47:29.650Z,8.97
2019-02-18T22:49:57.085Z,8.94
2019-02-18T22:52:25.630Z,8.97
2019-02-18T22:54:53.275Z,8.96
2019-02-18T22:57:20.825Z,8.92
2019-02-18T22:59:48.295Z,8.84
2019-02-18T23:02:15.895Z,8.95
2019-02-18T23:04:43.320Z,8.88
2019-02-18T23:07:10.826Z,8.88
2019-02-18T23:09:38.211Z,8.87
2019-02-18T23:12:06.270Z,8.89
2019-02-18T23:14:33.755Z,8.83
2019-02-18T23:17:01.226Z,8.81
2019-02-18T23:19:29.030Z,8.82
2019-02-18T23:21:56.525Z,8.78
2019-02-18T23:24:23.890Z,8.84
2019-02-18T23:26:51.423Z,8.82
2019-02-18T23:29:18.862Z,8.88
2019-02-18T23:31:46.600Z,8.84
2019-02-18T23:34:14.030Z,8.82
2019-02-18T23:36:41.520Z,8.81
2019-02-18T23:39:09.019Z,8.80
2019-02-18T23:41:36.543Z,8.85
2019-02-18T23:44:03.945Z,8.82
2019-02-18T23:46:31.458Z,8.86
2019-02-18T23:48:58.972Z,8.91
2019-02-18T23:51:26.425Z,8.87
2019-02-18T23:53:53.936Z,8.89
2019-02-18T23:56:21.320Z,8.89
2019-02-18T23:58:48.849Z,8.87
